sensor_id;sensor_type;location;lat;lon;timestamp;P1;durP1;ratioP1;P2;durP2;ratioP2
52126;SDS011;38120;53.176;6.614;2023-11-21T00:00:18;16.33;;;6.57;;
52126;SDS011;38120;53.176;6.614;2023-11-21T00:02:45;16.63;;;5.40;;
52126;SDS011;38120;53.176;6.614;2023-11-21T00:05:11;11.75;;;5.53;;
52126;SDS011;38120;53.176;6.614;2023-11-21T00:07:39;16.90;;;5.95;;
52126;SDS011;38120;53.176;6.614;2023-11-21T00:10:06;13.77;;;5.95;;
52126;SDS011;38120;53.176;6.614;2023-11-21T00:12:36;20.10;;;6.95;;
52126;SDS011;38120;53.176;6.614;2023-11-21T00:15:02;22.85;;;8.88;;
52126;SDS011;38120;53.176;6.614;2023-11-21T00:17:30;20.15;;;6.90;;
52126;SDS011;38120;53.176;6.614;2023-11-21T00:19:55;18.67;;;7.17;;
52126;SDS011;38120;53.176;6.614;2023-11-21T00:22:21;18.87;;;6.83;;
52126;SDS011;38120;53.176;6.614;2023-11-21T00:24:47;17.33;;;6.70;;
52126;SDS011;38120;53.176;6.614;2023-11-21T00:27:20;18.17;;;7.03;;
52126;SDS011;38120;53.176;6.614;2023-11-21T00:29:46;17.40;;;7.63;;
52126;SDS011;38120;53.176;6.614;2023-11-21T00:32:12;16.45;;;7.13;;
52126;SDS011;38120;53.176;6.614;2023-11-21T00:34:38;24.13;;;8.17;;
52126;SDS011;38120;53.176;6.614;2023-11-21T00:42:00;19.02;;;7.85;;
52126;SDS011;38120;53.176;6.614;2023-11-21T00:44:25;19.25;;;7.50;;
52126;SDS011;38120;53.176;6.614;2023-11-21T00:46:51;21.90;;;6.73;;
52126;SDS011;38120;53.176;6.614;2023-11-21T00:49:17;17.10;;;7.10;;
52126;SDS011;38120;53.176;6.614;2023-11-21T00:51:43;20.02;;;7.32;;
52126;SDS011;38120;53.176;6.614;2023-11-21T00:54:09;22.03;;;7.87;;
52126;SDS011;38120;53.176;6.614;2023-11-21T00:56:35;30.63;;;8.50;;
52126;SDS011;38120;53.176;6.614;2023-11-21T00:59:00;25.63;;;8.43;;
52126;SDS011;38120;53.176;6.614;2023-11-21T01:01:26;22.83;;;7.73;;
52126;SDS011;38120;53.176;6.614;2023-11-21T01:03:51;20.80;;;7.57;;
52126;SDS011;38120;53.176;6.614;2023-11-21T01:06:17;23.73;;;9.47;;
52126;SDS011;38120;53.176;6.614;2023-11-21T01:08:43;31.50;;;9.43;;
52126;SDS011;38120;53.176;6.614;2023-11-21T01:11:09;18.58;;;8.05;;
52126;SDS011;38120;53.176;6.614;2023-11-21T01:13:37;26.17;;;8.05;;
52126;SDS011;38120;53.176;6.614;2023-11-21T01:16:06;29.27;;;9.82;;
52126;SDS011;38120;53.176;6.614;2023-11-21T01:20:58;16.27;;;8.55;;
52126;SDS011;38120;53.176;6.614;2023-11-21T01:23:26;27.40;;;8.27;;
52126;SDS011;38120;53.176;6.614;2023-11-21T01:25:52;21.30;;;8.33;;
52126;SDS011;38120;53.176;6.614;2023-11-21T01:28:20;20.88;;;8.27;;
52126;SDS011;38120;53.176;6.614;2023-11-21T01:30:47;22.63;;;8.40;;
52126;SDS011;38120;53.176;6.614;2023-11-21T01:33:14;18.98;;;8.23;;
52126;SDS011;38120;53.176;6.614;2023-11-21T01:38:07;22.02;;;8.07;;
52126;SDS011;38120;53.176;6.614;2023-11-21T01:40:33;27.45;;;9.40;;
52126;SDS011;38120;53.176;6.614;2023-11-21T01:42:59;21.55;;;7.55;;
52126;SDS011;38120;53.176;6.614;2023-11-21T01:45:28;19.20;;;7.82;;
52126;SDS011;38120;53.176;6.614;2023-11-21T01:47:56;22.65;;;8.43;;
52126;SDS011;38120;53.176;6.614;2023-11-21T01:50:23;20.90;;;8.68;;
52126;SDS011;38120;53.176;6.614;2023-11-21T01:52:50;19.27;;;9.23;;
52126;SDS011;38120;53.176;6.614;2023-11-21T01:55:17;19.05;;;7.45;;
52126;SDS011;38120;53.176;6.614;2023-11-21T01:57:43;23.60;;;8.30;;
52126;SDS011;38120;53.176;6.614;2023-11-21T02:00:11;21.25;;;8.48;;
52126;SDS011;38120;53.176;6.614;2023-11-21T02:02:47;22.60;;;7.82;;
52126;SDS011;38120;53.176;6.614;2023-11-21T02:05:14;16.88;;;8.05;;
52126;SDS011;38120;53.176;6.614;2023-11-21T02:07:43;22.02;;;9.30;;
52126;SDS011;38120;53.176;6.614;2023-11-21T02:10:14;18.90;;;8.20;;
52126;SDS011;38120;53.176;6.614;2023-11-21T02:12:49;28.70;;;8.38;;
52126;SDS011;38120;53.176;6.614;2023-11-21T02:15:18;25.83;;;9.63;;
52126;SDS011;38120;53.176;6.614;2023-11-21T02:17:48;24.65;;;9.38;;
52126;SDS011;38120;53.176;6.614;2023-11-21T02:20:19;25.90;;;9.63;;
52126;SDS011;38120;53.176;6.614;2023-11-21T02:22:49;23.88;;;9.40;;
52126;SDS011;38120;53.176;6.614;2023-11-21T02:25:21;23.55;;;9.93;;
52126;SDS011;38120;53.176;6.614;2023-11-21T02:27:47;22.95;;;9.38;;
52126;SDS011;38120;53.176;6.614;2023-11-21T02:30:14;27.50;;;10.03;;
52126;SDS011;38120;53.176;6.614;2023-11-21T02:32:41;27.38;;;11.40;;
52126;SDS011;38120;53.176;6.614;2023-11-21T02:35:08;24.25;;;9.63;;
52126;SDS011;38120;53.176;6.614;2023-11-21T02:37:34;24.55;;;9.00;;
52126;SDS011;38120;53.176;6.614;2023-11-21T02:40:00;27.88;;;9.90;;
52126;SDS011;38120;53.176;6.614;2023-11-21T02:42:30;32.80;;;10.20;;
52126;SDS011;38120;53.176;6.614;2023-11-21T02:44:56;24.03;;;9.77;;
52126;SDS011;38120;53.176;6.614;2023-11-21T02:47:22;29.80;;;10.13;;
52126;SDS011;38120;53.176;6.614;2023-11-21T02:49:48;35.80;;;10.50;;
52126;SDS011;38120;53.176;6.614;2023-11-21T02:52:15;26.70;;;10.55;;
52126;SDS011;38120;53.176;6.614;2023-11-21T02:54:41;31.33;;;10.90;;
52126;SDS011;38120;53.176;6.614;2023-11-21T02:57:07;36.10;;;10.52;;
52126;SDS011;38120;53.176;6.614;2023-11-21T02:59:33;34.63;;;11.77;;
52126;SDS011;38120;53.176;6.614;2023-11-21T03:02:00;32.47;;;11.57;;
52126;SDS011;38120;53.176;6.614;2023-11-21T03:04:26;25.30;;;11.02;;
52126;SDS011;38120;53.176;6.614;2023-11-21T03:06:52;24.17;;;10.50;;
52126;SDS011;38120;53.176;6.614;2023-11-21T03:09:17;24.33;;;10.47;;
52126;SDS011;38120;53.176;6.614;2023-11-21T03:11:43;31.17;;;10.00;;
52126;SDS011;38120;53.176;6.614;2023-11-21T03:14:08;26.83;;;9.67;;
52126;SDS011;38120;53.176;6.614;2023-11-21T03:16:35;35.22;;;11.18;;
52126;SDS011;38120;53.176;6.614;2023-11-21T03:19:03;25.85;;;11.20;;
52126;SDS011;38120;53.176;6.614;2023-11-21T03:21:30;37.42;;;11.35;;
52126;SDS011;38120;53.176;6.614;2023-11-21T03:23:56;37.88;;;13.48;;
52126;SDS011;38120;53.176;6.614;2023-11-21T03:26:21;36.20;;;11.40;;
52126;SDS011;38120;53.176;6.614;2023-11-21T03:28:47;31.58;;;11.48;;
52126;SDS011;38120;53.176;6.614;2023-11-21T03:31:13;29.90;;;10.70;;
52126;SDS011;38120;53.176;6.614;2023-11-21T03:33:39;32.97;;;11.97;;
52126;SDS011;38120;53.176;6.614;2023-11-21T03:36:04;22.13;;;10.00;;
52126;SDS011;38120;53.176;6.614;2023-11-21T03:38:32;35.72;;;12.70;;
52126;SDS011;38120;53.176;6.614;2023-11-21T03:40:58;36.47;;;11.57;;
52126;SDS011;38120;53.176;6.614;2023-11-21T03:43:24;34.07;;;11.27;;
52126;SDS011;38120;53.176;6.614;2023-11-21T03:45:50;34.58;;;11.68;;
52126;SDS011;38120;53.176;6.614;2023-11-21T03:48:15;35.03;;;11.37;;
52126;SDS011;38120;53.176;6.614;2023-11-21T03:50:41;29.75;;;12.15;;
52126;SDS011;38120;53.176;6.614;2023-11-21T03:53:07;28.90;;;11.00;;
52126;SDS011;38120;53.176;6.614;2023-11-21T03:55:35;32.97;;;11.97;;
52126;SDS011;38120;53.176;6.614;2023-11-21T03:58:01;42.45;;;16.23;;
52126;SDS011;38120;53.176;6.614;2023-11-21T04:00:28;32.08;;;11.63;;
52126;SDS011;38120;53.176;6.614;2023-11-21T04:02:53;44.87;;;15.57;;
52126;SDS011;38120;53.176;6.614;2023-11-21T04:05:19;29.77;;;11.97;;
52126;SDS011;38120;53.176;6.614;2023-11-21T04:07:49;46.30;;;13.15;;
52126;SDS011;38120;53.176;6.614;2023-11-21T04:10:16;33.63;;;12.18;;
52126;SDS011;38120;53.176;6.614;2023-11-21T04:12:42;38.70;;;13.43;;
52126;SDS011;38120;53.176;6.614;2023-11-21T04:15:08;46.60;;;15.57;;
52126;SDS011;38120;53.176;6.614;2023-11-21T04:20:00;30.70;;;14.68;;
52126;SDS011;38120;53.176;6.614;2023-11-21T04:22:26;39.42;;;13.40;;
52126;SDS011;38120;53.176;6.614;2023-11-21T04:24:51;42.93;;;14.63;;
52126;SDS011;38120;53.176;6.614;2023-11-21T04:27:17;42.83;;;14.03;;
52126;SDS011;38120;53.176;6.614;2023-11-21T04:29:43;33.87;;;14.10;;
52126;SDS011;38120;53.176;6.614;2023-11-21T04:32:09;40.67;;;14.63;;
52126;SDS011;38120;53.176;6.614;2023-11-21T04:34:35;39.92;;;14.23;;
52126;SDS011;38120;53.176;6.614;2023-11-21T04:37:01;42.87;;;16.50;;
52126;SDS011;38120;53.176;6.614;2023-11-21T04:39:28;49.67;;;15.70;;
52126;SDS011;38120;53.176;6.614;2023-11-21T04:41:53;32.77;;;13.33;;
52126;SDS011;38120;53.176;6.614;2023-11-21T04:44:19;40.45;;;16.27;;
52126;SDS011;38120;53.176;6.614;2023-11-21T04:46:45;34.90;;;14.37;;
52126;SDS011;38120;53.176;6.614;2023-11-21T04:49:11;42.17;;;15.13;;
52126;SDS011;38120;53.176;6.614;2023-11-21T04:51:36;46.25;;;16.05;;
52126;SDS011;38120;53.176;6.614;2023-11-21T04:54:02;38.60;;;15.13;;
52126;SDS011;38120;53.176;6.614;2023-11-21T04:56:28;31.23;;;15.03;;
52126;SDS011;38120;53.176;6.614;2023-11-21T04:58:54;33.43;;;12.93;;
52126;SDS011;38120;53.176;6.614;2023-11-21T05:01:19;35.72;;;13.68;;
52126;SDS011;38120;53.176;6.614;2023-11-21T05:03:46;38.95;;;14.02;;
52126;SDS011;38120;53.176;6.614;2023-11-21T05:06:12;57.50;;;16.65;;
52126;SDS011;38120;53.176;6.614;2023-11-21T05:08:39;50.45;;;17.75;;
52126;SDS011;38120;53.176;6.614;2023-11-21T05:11:05;45.17;;;15.10;;
52126;SDS011;38120;53.176;6.614;2023-11-21T05:13:33;44.33;;;14.63;;
52126;SDS011;38120;53.176;6.614;2023-11-21T05:15:59;33.95;;;15.02;;
52126;SDS011;38120;53.176;6.614;2023-11-21T05:18:25;44.30;;;14.63;;
52126;SDS011;38120;53.176;6.614;2023-11-21T05:20:55;54.22;;;17.73;;
52126;SDS011;38120;53.176;6.614;2023-11-21T05:23:21;45.67;;;15.77;;
52126;SDS011;38120;53.176;6.614;2023-11-21T05:25:47;41.42;;;15.75;;
52126;SDS011;38120;53.176;6.614;2023-11-21T05:28:13;38.20;;;14.47;;
52126;SDS011;38120;53.176;6.614;2023-11-21T05:30:38;37.73;;;13.63;;
52126;SDS011;38120;53.176;6.614;2023-11-21T05:33:04;42.77;;;16.17;;
52126;SDS011;38120;53.176;6.614;2023-11-21T05:35:30;34.47;;;14.13;;
52126;SDS011;38120;53.176;6.614;2023-11-21T05:37:56;26.90;;;12.20;;
52126;SDS011;38120;53.176;6.614;2023-11-21T05:40:22;25.70;;;10.57;;
52126;SDS011;38120;53.176;6.614;2023-11-21T05:42:48;23.30;;;10.45;;
52126;SDS011;38120;53.176;6.614;2023-11-21T05:45:14;21.50;;;10.30;;
52126;SDS011;38120;53.176;6.614;2023-11-21T05:47:41;21.08;;;10.30;;
52126;SDS011;38120;53.176;6.614;2023-11-21T05:50:08;21.33;;;9.77;;
52126;SDS011;38120;53.176;6.614;2023-11-21T05:52:39;20.05;;;9.35;;
52126;SDS011;38120;53.176;6.614;2023-11-21T05:57:34;23.00;;;9.57;;
52126;SDS011;38120;53.176;6.614;2023-11-21T06:00:05;23.70;;;10.30;;
52126;SDS011;38120;53.176;6.614;2023-11-21T06:02:40;20.30;;;9.32;;
52126;SDS011;38120;53.176;6.614;2023-11-21T06:05:07;23.20;;;10.13;;
52126;SDS011;38120;53.176;6.614;2023-11-21T06:07:33;20.20;;;9.52;;
52126;SDS011;38120;53.176;6.614;2023-11-21T06:10:01;21.67;;;10.07;;
52126;SDS011;38120;53.176;6.614;2023-11-21T06:12:28;16.05;;;7.50;;
52126;SDS011;38120;53.176;6.614;2023-11-21T06:14:54;23.33;;;9.80;;
52126;SDS011;38120;53.176;6.614;2023-11-21T06:17:20;20.65;;;10.05;;
52126;SDS011;38120;53.176;6.614;2023-11-21T06:19:46;20.92;;;9.60;;
52126;SDS011;38120;53.176;6.614;2023-11-21T06:22:12;22.43;;;9.67;;
52126;SDS011;38120;53.176;6.614;2023-11-21T06:24:38;17.40;;;10.07;;
52126;SDS011;38120;53.176;6.614;2023-11-21T06:27:04;18.98;;;9.95;;
52126;SDS011;38120;53.176;6.614;2023-11-21T06:29:30;22.48;;;10.02;;
52126;SDS011;38120;53.176;6.614;2023-11-21T06:31:57;19.83;;;10.07;;
52126;SDS011;38120;53.176;6.614;2023-11-21T06:36:49;25.08;;;11.25;;
52126;SDS011;38120;53.176;6.614;2023-11-21T06:39:14;21.23;;;11.47;;
52126;SDS011;38120;53.176;6.614;2023-11-21T06:41:42;26.27;;;12.35;;
52126;SDS011;38120;53.176;6.614;2023-11-21T06:44:08;33.75;;;16.25;;
52126;SDS011;38120;53.176;6.614;2023-11-21T06:46:34;28.17;;;14.77;;
52126;SDS011;38120;53.176;6.614;2023-11-21T06:49:00;27.75;;;15.80;;
52126;SDS011;38120;53.176;6.614;2023-11-21T06:51:25;31.53;;;14.07;;
52126;SDS011;38120;53.176;6.614;2023-11-21T06:53:51;28.77;;;13.20;;
52126;SDS011;38120;53.176;6.614;2023-11-21T06:56:17;28.77;;;14.23;;
52126;SDS011;38120;53.176;6.614;2023-11-21T07:01:10;25.60;;;12.90;;
52126;SDS011;38120;53.176;6.614;2023-11-21T07:03:36;26.40;;;12.32;;
52126;SDS011;38120;53.176;6.614;2023-11-21T07:06:09;21.70;;;11.10;;
52126;SDS011;38120;53.176;6.614;2023-11-21T07:08:34;26.10;;;11.93;;
52126;SDS011;38120;53.176;6.614;2023-11-21T07:11:00;23.13;;;11.67;;
52126;SDS011;38120;53.176;6.614;2023-11-21T07:13:28;17.85;;;9.20;;
52126;SDS011;38120;53.176;6.614;2023-11-21T07:15:54;17.33;;;9.38;;
52126;SDS011;38120;53.176;6.614;2023-11-21T07:18:19;16.50;;;9.47;;
52126;SDS011;38120;53.176;6.614;2023-11-21T07:20:45;22.40;;;11.00;;
52126;SDS011;38120;53.176;6.614;2023-11-21T07:23:11;21.48;;;10.38;;
52126;SDS011;38120;53.176;6.614;2023-11-21T07:25:37;27.25;;;13.95;;
52126;SDS011;38120;53.176;6.614;2023-11-21T07:28:02;25.30;;;12.47;;
52126;SDS011;38120;53.176;6.614;2023-11-21T07:30:30;25.90;;;14.23;;
52126;SDS011;38120;53.176;6.614;2023-11-21T07:32:56;27.35;;;14.48;;
52126;SDS011;38120;53.176;6.614;2023-11-21T07:35:21;32.90;;;17.33;;
52126;SDS011;38120;53.176;6.614;2023-11-21T07:37:48;30.90;;;16.65;;
52126;SDS011;38120;53.176;6.614;2023-11-21T07:42:39;28.60;;;15.45;;
52126;SDS011;38120;53.176;6.614;2023-11-21T07:45:08;30.92;;;16.13;;
52126;SDS011;38120;53.176;6.614;2023-11-21T07:47:34;35.60;;;17.40;;
52126;SDS011;38120;53.176;6.614;2023-11-21T07:50:00;31.27;;;17.23;;
52126;SDS011;38120;53.176;6.614;2023-11-21T07:52:28;36.10;;;18.85;;
52126;SDS011;38120;53.176;6.614;2023-11-21T07:54:53;37.53;;;16.83;;
52126;SDS011;38120;53.176;6.614;2023-11-21T07:57:19;32.33;;;17.03;;
52126;SDS011;38120;53.176;6.614;2023-11-21T07:59:45;39.30;;;18.03;;
52126;SDS011;38120;53.176;6.614;2023-11-21T08:02:10;32.00;;;17.17;;
52126;SDS011;38120;53.176;6.614;2023-11-21T08:04:36;32.50;;;17.93;;
52126;SDS011;38120;53.176;6.614;2023-11-21T08:07:02;32.75;;;17.67;;
52126;SDS011;38120;53.176;6.614;2023-11-21T08:09:29;35.28;;;18.20;;
52126;SDS011;38120;53.176;6.614;2023-11-21T08:11:55;29.75;;;17.38;;
52126;SDS011;38120;53.176;6.614;2023-11-21T08:16:47;32.42;;;17.27;;
52126;SDS011;38120;53.176;6.614;2023-11-21T08:19:12;35.93;;;17.63;;
52126;SDS011;38120;53.176;6.614;2023-11-21T08:21:38;39.15;;;21.75;;
52126;SDS011;38120;53.176;6.614;2023-11-21T08:24:08;34.03;;;19.55;;
52126;SDS011;38120;53.176;6.614;2023-11-21T08:26:36;37.28;;;20.60;;
52126;SDS011;38120;53.176;6.614;2023-11-21T08:29:02;37.60;;;21.40;;
52126;SDS011;38120;53.176;6.614;2023-11-21T08:31:28;29.73;;;16.65;;
52126;SDS011;38120;53.176;6.614;2023-11-21T08:33:54;34.67;;;18.45;;
52126;SDS011;38120;53.176;6.614;2023-11-21T08:36:23;36.72;;;21.13;;
52126;SDS011;38120;53.176;6.614;2023-11-21T08:41:17;30.00;;;17.27;;
52126;SDS011;38120;53.176;6.614;2023-11-21T08:43:47;34.67;;;19.40;;
52126;SDS011;38120;53.176;6.614;2023-11-21T08:46:15;31.30;;;17.83;;
52126;SDS011;38120;53.176;6.614;2023-11-21T08:48:42;36.38;;;19.08;;
52126;SDS011;38120;53.176;6.614;2023-11-21T08:51:10;34.47;;;18.42;;
52126;SDS011;38120;53.176;6.614;2023-11-21T08:53:39;30.85;;;17.55;;
52126;SDS011;38120;53.176;6.614;2023-11-21T08:56:05;29.35;;;18.50;;
52126;SDS011;38120;53.176;6.614;2023-11-21T08:58:32;31.55;;;17.70;;
52126;SDS011;38120;53.176;6.614;2023-11-21T09:00:58;34.63;;;17.30;;
52126;SDS011;38120;53.176;6.614;2023-11-21T09:03:23;24.17;;;14.77;;
52126;SDS011;38120;53.176;6.614;2023-11-21T09:05:50;28.73;;;15.15;;
52126;SDS011;38120;53.176;6.614;2023-11-21T09:08:16;24.63;;;13.80;;
52126;SDS011;38120;53.176;6.614;2023-11-21T09:10:42;18.70;;;12.32;;
52126;SDS011;38120;53.176;6.614;2023-11-21T09:13:10;18.00;;;12.55;;
52126;SDS011;38120;53.176;6.614;2023-11-21T09:15:36;18.98;;;11.65;;
52126;SDS011;38120;53.176;6.614;2023-11-21T09:18:02;20.98;;;12.18;;
52126;SDS011;38120;53.176;6.614;2023-11-21T09:20:28;18.50;;;11.20;;
52126;SDS011;38120;53.176;6.614;2023-11-21T09:22:53;17.13;;;11.50;;
52126;SDS011;38120;53.176;6.614;2023-11-21T09:27:46;18.90;;;12.63;;
52126;SDS011;38120;53.176;6.614;2023-11-21T09:30:12;18.70;;;11.23;;
52126;SDS011;38120;53.176;6.614;2023-11-21T09:32:39;21.75;;;12.35;;
52126;SDS011;38120;53.176;6.614;2023-11-21T09:35:05;22.02;;;12.45;;
52126;SDS011;38120;53.176;6.614;2023-11-21T09:37:33;20.73;;;12.70;;
52126;SDS011;38120;53.176;6.614;2023-11-21T09:40:01;21.92;;;11.68;;
52126;SDS011;38120;53.176;6.614;2023-11-21T09:42:40;18.48;;;12.10;;
52126;SDS011;38120;53.176;6.614;2023-11-21T09:47:44;18.80;;;10.82;;
52126;SDS011;38120;53.176;6.614;2023-11-21T09:50:11;16.38;;;10.55;;
52126;SDS011;38120;53.176;6.614;2023-11-21T09:52:55;16.40;;;10.90;;
52126;SDS011;38120;53.176;6.614;2023-11-21T09:55:29;17.17;;;9.85;;
52126;SDS011;38120;53.176;6.614;2023-11-21T09:58:01;15.50;;;9.82;;
52126;SDS011;38120;53.176;6.614;2023-11-21T10:00:29;15.40;;;9.50;;
52126;SDS011;38120;53.176;6.614;2023-11-21T10:02:58;16.92;;;9.45;;
52126;SDS011;38120;53.176;6.614;2023-11-21T10:05:24;18.73;;;9.45;;
52126;SDS011;38120;53.176;6.614;2023-11-21T10:07:50;14.32;;;8.65;;
52126;SDS011;38120;53.176;6.614;2023-11-21T10:10:20;12.52;;;8.80;;
52126;SDS011;38120;53.176;6.614;2023-11-21T10:12:50;15.65;;;9.15;;
52126;SDS011;38120;53.176;6.614;2023-11-21T10:15:23;14.77;;;9.77;;
52126;SDS011;38120;53.176;6.614;2023-11-21T10:17:52;14.48;;;9.10;;
52126;SDS011;38120;53.176;6.614;2023-11-21T10:20:20;15.48;;;8.10;;
52126;SDS011;38120;53.176;6.614;2023-11-21T10:22:46;14.57;;;7.65;;
52126;SDS011;38120;53.176;6.614;2023-11-21T10:25:12;15.13;;;9.25;;
52126;SDS011;38120;53.176;6.614;2023-11-21T10:27:42;15.43;;;8.88;;
52126;SDS011;38120;53.176;6.614;2023-11-21T10:30:08;14.02;;;9.00;;
52126;SDS011;38120;53.176;6.614;2023-11-21T10:32:38;10.70;;;6.78;;
52126;SDS011;38120;53.176;6.614;2023-11-21T10:35:06;14.75;;;8.57;;
52126;SDS011;38120;53.176;6.614;2023-11-21T10:37:38;15.43;;;8.50;;
52126;SDS011;38120;53.176;6.614;2023-11-21T10:40:08;13.23;;;7.93;;
52126;SDS011;38120;53.176;6.614;2023-11-21T10:42:38;11.52;;;7.38;;
52126;SDS011;38120;53.176;6.614;2023-11-21T10:45:05;13.23;;;7.93;;
52126;SDS011;38120;53.176;6.614;2023-11-21T10:47:43;16.83;;;8.65;;
52126;SDS011;38120;53.176;6.614;2023-11-21T10:50:09;13.95;;;8.20;;
52126;SDS011;38120;53.176;6.614;2023-11-21T10:52:39;17.80;;;10.43;;
52126;SDS011;38120;53.176;6.614;2023-11-21T10:55:18;15.70;;;11.07;;
52126;SDS011;38120;53.176;6.614;2023-11-21T10:57:49;9.80;;;5.63;;
52126;SDS011;38120;53.176;6.614;2023-11-21T11:00:19;14.18;;;7.90;;
52126;SDS011;38120;53.176;6.614;2023-11-21T11:02:52;10.18;;;5.95;;
52126;SDS011;38120;53.176;6.614;2023-11-21T11:05:25;8.57;;;5.38;;
52126;SDS011;38120;53.176;6.614;2023-11-21T11:08:04;9.95;;;5.90;;
52126;SDS011;38120;53.176;6.614;2023-11-21T11:10:33;10.13;;;5.65;;
52126;SDS011;38120;53.176;6.614;2023-11-21T11:12:59;11.25;;;5.05;;
52126;SDS011;38120;53.176;6.614;2023-11-21T11:17:52;8.38;;;5.63;;
52126;SDS011;38120;53.176;6.614;2023-11-21T11:20:22;9.73;;;5.43;;
52126;SDS011;38120;53.176;6.614;2023-11-21T11:28:11;8.48;;;4.65;;
52126;SDS011;38120;53.176;6.614;2023-11-21T11:30:47;9.82;;;5.18;;
52126;SDS011;38120;53.176;6.614;2023-11-21T11:33:42;12.00;;;6.32;;
52126;SDS011;38120;53.176;6.614;2023-11-21T11:38:56;10.88;;;5.75;;
52126;SDS011;38120;53.176;6.614;2023-11-21T11:41:25;13.90;;;8.20;;
52126;SDS011;38120;53.176;6.614;2023-11-21T11:43:53;9.85;;;5.05;;
52126;SDS011;38120;53.176;6.614;2023-11-21T11:48:48;13.23;;;7.43;;
52126;SDS011;38120;53.176;6.614;2023-11-21T11:51:28;15.82;;;8.75;;
52126;SDS011;38120;53.176;6.614;2023-11-21T11:53:53;18.15;;;9.38;;
52126;SDS011;38120;53.176;6.614;2023-11-21T11:59:02;9.70;;;5.28;;
52126;SDS011;38120;53.176;6.614;2023-11-21T12:01:29;9.88;;;5.10;;
52126;SDS011;38120;53.176;6.614;2023-11-21T12:04:42;9.07;;;4.55;;
52126;SDS011;38120;53.176;6.614;2023-11-21T12:06:45;8.15;;;4.68;;
52126;SDS011;38120;53.176;6.614;2023-11-21T12:09:21;8.05;;;4.43;;
52126;SDS011;38120;53.176;6.614;2023-11-21T12:11:48;10.93;;;5.43;;
52126;SDS011;38120;53.176;6.614;2023-11-21T12:14:14;9.75;;;4.85;;
52126;SDS011;38120;53.176;6.614;2023-11-21T12:16:40;8.63;;;4.72;;
52126;SDS011;38120;53.176;6.614;2023-11-21T12:19:11;10.07;;;4.95;;
52126;SDS011;38120;53.176;6.614;2023-11-21T12:21:37;10.27;;;6.03;;
52126;SDS011;38120;53.176;6.614;2023-11-21T12:24:06;11.00;;;6.20;;
52126;SDS011;38120;53.176;6.614;2023-11-21T12:26:35;9.98;;;5.45;;
52126;SDS011;38120;53.176;6.614;2023-11-21T12:33:55;9.95;;;6.07;;
52126;SDS011;38120;53.176;6.614;2023-11-21T12:36:21;11.35;;;6.88;;
52126;SDS011;38120;53.176;6.614;2023-11-21T12:38:47;10.90;;;6.68;;
52126;SDS011;38120;53.176;6.614;2023-11-21T12:41:13;12.17;;;5.83;;
52126;SDS011;38120;53.176;6.614;2023-11-21T12:43:40;10.30;;;6.57;;
52126;SDS011;38120;53.176;6.614;2023-11-21T12:46:07;12.52;;;7.15;;
52126;SDS011;38120;53.176;6.614;2023-11-21T12:48:36;11.95;;;6.53;;
52126;SDS011;38120;53.176;6.614;2023-11-21T12:51:07;12.82;;;6.20;;
52126;SDS011;38120;53.176;6.614;2023-11-21T12:53:34;11.35;;;6.60;;
52126;SDS011;38120;53.176;6.614;2023-11-21T12:56:07;11.23;;;6.40;;
52126;SDS011;38120;53.176;6.614;2023-11-21T12:58:35;14.23;;;7.85;;
52126;SDS011;38120;53.176;6.614;2023-11-21T13:01:02;12.57;;;7.18;;
52126;SDS011;38120;53.176;6.614;2023-11-21T13:03:30;10.30;;;6.30;;
52126;SDS011;38120;53.176;6.614;2023-11-21T13:05:57;11.20;;;7.40;;
52126;SDS011;38120;53.176;6.614;2023-11-21T13:08:24;10.02;;;6.30;;
52126;SDS011;38120;53.176;6.614;2023-11-21T13:10:52;11.02;;;6.10;;
52126;SDS011;38120;53.176;6.614;2023-11-21T13:13:20;11.77;;;6.50;;
52126;SDS011;38120;53.176;6.614;2023-11-21T13:15:50;10.75;;;6.30;;
52126;SDS011;38120;53.176;6.614;2023-11-21T13:18:26;10.10;;;5.85;;
52126;SDS011;38120;53.176;6.614;2023-11-21T13:20:54;10.95;;;5.93;;
52126;SDS011;38120;53.176;6.614;2023-11-21T13:23:20;9.20;;;5.28;;
52126;SDS011;38120;53.176;6.614;2023-11-21T13:25:48;10.48;;;4.95;;
52126;SDS011;38120;53.176;6.614;2023-11-21T13:28:14;10.52;;;4.97;;
52126;SDS011;38120;53.176;6.614;2023-11-21T13:30:41;7.35;;;5.05;;
52126;SDS011;38120;53.176;6.614;2023-11-21T13:33:07;8.57;;;4.55;;
52126;SDS011;38120;53.176;6.614;2023-11-21T13:35:34;13.40;;;5.53;;
52126;SDS011;38120;53.176;6.614;2023-11-21T13:38:10;8.60;;;5.13;;
52126;SDS011;38120;53.176;6.614;2023-11-21T13:40:37;8.40;;;4.82;;
52126;SDS011;38120;53.176;6.614;2023-11-21T13:43:17;11.57;;;6.05;;
52126;SDS011;38120;53.176;6.614;2023-11-21T13:45:46;11.63;;;5.72;;
52126;SDS011;38120;53.176;6.614;2023-11-21T13:48:13;9.30;;;4.30;;
52126;SDS011;38120;53.176;6.614;2023-11-21T13:50:40;7.25;;;4.18;;
52126;SDS011;38120;53.176;6.614;2023-11-21T13:53:13;10.60;;;4.80;;
52126;SDS011;38120;53.176;6.614;2023-11-21T13:55:52;8.15;;;4.97;;
52126;SDS011;38120;53.176;6.614;2023-11-21T13:58:22;6.35;;;3.55;;
52126;SDS011;38120;53.176;6.614;2023-11-21T14:01:07;9.40;;;4.45;;
52126;SDS011;38120;53.176;6.614;2023-11-21T14:04:03;9.75;;;5.43;;
52126;SDS011;38120;53.176;6.614;2023-11-21T14:06:42;10.20;;;4.95;;
52126;SDS011;38120;53.176;6.614;2023-11-21T14:09:17;9.23;;;4.78;;
52126;SDS011;38120;53.176;6.614;2023-11-21T14:11:51;8.38;;;4.88;;
52126;SDS011;38120;53.176;6.614;2023-11-21T14:14:19;9.70;;;4.30;;
52126;SDS011;38120;53.176;6.614;2023-11-21T14:16:46;7.00;;;4.15;;
52126;SDS011;38120;53.176;6.614;2023-11-21T14:19:12;11.20;;;4.55;;
52126;SDS011;38120;53.176;6.614;2023-11-21T14:21:42;7.93;;;3.83;;
52126;SDS011;38120;53.176;6.614;2023-11-21T14:24:14;6.75;;;4.00;;
52126;SDS011;38120;53.176;6.614;2023-11-21T14:26:43;8.63;;;4.85;;
52126;SDS011;38120;53.176;6.614;2023-11-21T14:29:14;7.28;;;4.18;;
52126;SDS011;38120;53.176;6.614;2023-11-21T14:31:45;7.65;;;4.28;;
52126;SDS011;38120;53.176;6.614;2023-11-21T14:34:15;7.90;;;4.05;;
52126;SDS011;38120;53.176;6.614;2023-11-21T14:36:41;9.05;;;4.28;;
52126;SDS011;38120;53.176;6.614;2023-11-21T14:39:08;6.32;;;3.83;;
52126;SDS011;38120;53.176;6.614;2023-11-21T14:41:41;8.45;;;4.13;;
52126;SDS011;38120;53.176;6.614;2023-11-21T14:44:08;9.93;;;4.80;;
52126;SDS011;38120;53.176;6.614;2023-11-21T14:46:37;257.58;;;63.65;;
52126;SDS011;38120;53.176;6.614;2023-11-21T14:49:04;19.83;;;7.28;;
52126;SDS011;38120;53.176;6.614;2023-11-21T14:51:54;13.68;;;5.13;;
52126;SDS011;38120;53.176;6.614;2023-11-21T14:54:20;8.43;;;4.03;;
52126;SDS011;38120;53.176;6.614;2023-11-21T14:57:03;6.78;;;3.97;;
52126;SDS011;38120;53.176;6.614;2023-11-21T14:59:32;6.18;;;3.60;;
52126;SDS011;38120;53.176;6.614;2023-11-21T15:01:57;8.98;;;3.40;;
52126;SDS011;38120;53.176;6.614;2023-11-21T15:04:34;9.23;;;3.05;;
52126;SDS011;38120;53.176;6.614;2023-11-21T15:07:04;10.88;;;5.32;;
52126;SDS011;38120;53.176;6.614;2023-11-21T15:11:56;7.85;;;3.67;;
52126;SDS011;38120;53.176;6.614;2023-11-21T15:14:29;8.82;;;3.70;;
52126;SDS011;38120;53.176;6.614;2023-11-21T15:17:00;10.43;;;3.85;;
52126;SDS011;38120;53.176;6.614;2023-11-21T15:19:27;7.43;;;3.80;;
52126;SDS011;38120;53.176;6.614;2023-11-21T15:21:54;9.68;;;4.60;;
52126;SDS011;38120;53.176;6.614;2023-11-21T15:24:19;7.38;;;4.40;;
52126;SDS011;38120;53.176;6.614;2023-11-21T15:26:45;7.93;;;3.92;;
52126;SDS011;38120;53.176;6.614;2023-11-21T15:29:11;8.60;;;3.93;;